Google Maps JavaScript API Example
Pilot Flight Report # 92104 Submitted by : AST204 on 2018-10-02
Date: 2018-10-02Aircraft: McDonnell Douglas MD-80
Flight No.: AST0959Distance (Nm): 590.19
Departure: KSEA - Seattle-Tacoma IntlDestination: KSFO - San Francisco Intl
 TimeFuelWeightSpeeds  
Out (Taxi)2139Z38842 lbs154652 lbs Flight RulesIFR
Off (Takeoff)2152Z 153817 lbs171 ktsFlight LevelFL320
On (Landing)2329Z 144486 lbs156 ktsVSTD-332 ft/min
In (Ramp)2335Z28304 lbs144117 lbs ZFW115810 lbs
Flight1.60  -  1:379338 lbs  Pax0
Block1.93  -  1:5610538 lbs  Cargo0
Departure WeatherKSEA 252137Z 00000KT 80SM BKN398 15/5 A2992
Destination WeatherKSFO 252335Z 00200KT 50SM SKC 28/10 A2987
Flight Comments